createdAt,value
2023-05-13T00:00:46.246Z,48.1875
2023-05-13T00:01:49.826Z,48.1770
2023-05-13T00:02:49.965Z,48.1520
2023-05-13T00:03:51.783Z,48.1465
2023-05-13T00:04:53.616Z,48.1531
2023-05-13T00:05:55.547Z,48.1518
2023-05-13T00:06:57.275Z,48.1483
2023-05-13T00:07:59.158Z,48.1384
2023-05-13T00:09:00.979Z,48.1301
2023-05-13T00:10:02.801Z,48.1543
2023-05-13T00:11:04.638Z,48.1644
2023-05-13T00:12:06.499Z,48.1321
2023-05-13T00:13:08.335Z,48.1505
2023-05-13T00:14:10.202Z,48.1875
2023-05-13T00:15:12.056Z,48.1699
2023-05-13T00:16:13.917Z,48.1506
2023-05-13T00:17:15.698Z,48.1404
2023-05-13T00:18:17.554Z,48.1131
2023-05-13T00:19:19.388Z,48.1334
2023-05-13T00:20:21.405Z,48.1234
2023-05-13T00:21:23.090Z,48.0628
2023-05-13T00:22:24.926Z,48.1162
2023-05-13T00:23:26.769Z,48.1228
2023-05-13T00:24:28.616Z,48.1380
2023-05-13T00:25:30.436Z,48.1193
2023-05-13T00:26:32.288Z,48.1036
2023-05-13T00:27:34.119Z,48.1104
2023-05-13T00:28:35.973Z,48.0858
2023-05-13T00:29:37.875Z,48.0775
2023-05-13T00:30:39.663Z,48.0373
2023-05-13T00:31:41.525Z,48.0363
2023-05-13T00:32:43.369Z,48.0436
2023-05-13T00:33:45.161Z,48.0428
2023-05-13T00:34:47.021Z,48.1035
2023-05-13T00:35:48.851Z,48.1389
2023-05-13T00:36:50.681Z,48.0692
2023-05-13T00:37:52.533Z,48.0896
2023-05-13T00:38:54.369Z,48.0287
2023-05-13T00:39:56.202Z,47.9780
2023-05-13T00:40:58.079Z,47.9428
2023-05-13T00:41:59.916Z,47.9093
2023-05-13T00:43:01.715Z,47.8788
2023-05-13T00:44:03.588Z,47.9067
2023-05-13T00:45:05.407Z,47.8860
2023-05-13T00:46:07.236Z,47.9261
2023-05-13T00:47:09.066Z,47.9685
2023-05-13T00:48:10.926Z,47.9098
2023-05-13T00:49:12.769Z,47.9579
2023-05-13T00:50:14.585Z,47.9728
2023-05-13T00:51:16.437Z,47.9195
2023-05-13T00:52:18.263Z,47.9384
2023-05-13T00:53:20.107Z,47.9459
2023-05-13T00:54:21.965Z,47.9141
2023-05-13T00:55:23.795Z,47.9304
2023-05-13T00:56:25.639Z,47.9415
2023-05-13T00:57:27.459Z,47.9093
2023-05-13T00:58:29.307Z,47.9149
2023-05-13T00:59:31.159Z,47.9399
2023-05-13T01:00:32.979Z,47.9005
2023-05-13T01:01:34.904Z,47.8898
2023-05-13T01:02:36.709Z,47.8741
2023-05-13T01:03:38.574Z,47.9172
2023-05-13T01:04:40.329Z,47.8611
2023-05-13T01:05:42.185Z,47.8834
2023-05-13T01:06:44.019Z,47.8667
2023-05-13T01:07:45.856Z,47.8604
2023-05-13T01:08:47.703Z,47.9013
2023-05-13T01:09:49.574Z,47.9422
2023-05-13T01:10:51.367Z,47.8982
2023-05-13T01:11:53.211Z,47.9531
2023-05-13T01:12:55.047Z,47.9439
2023-05-13T01:13:56.919Z,47.9453
2023-05-13T01:14:58.750Z,47.9099
2023-05-13T01:16:08.454Z,47.8990
2023-05-13T01:17:09.930Z,47.9009
2023-05-13T01:18:11.809Z,47.9076
2023-05-13T01:19:13.701Z,47.8765
2023-05-13T01:20:16.430Z,47.8396
2023-05-13T01:21:09.801Z,47.8292
2023-05-13T01:22:19.137Z,47.8121
2023-05-13T01:23:21.001Z,47.7905
2023-05-13T01:24:22.909Z,47.8149
2023-05-13T01:25:17.158Z,47.8242
2023-05-13T01:26:18.974Z,47.8549
2023-05-13T01:27:20.829Z,47.8764
2023-05-13T01:28:22.683Z,47.8559
2023-05-13T01:29:24.490Z,47.8286
2023-05-13T01:30:26.346Z,47.8228
2023-05-13T01:31:28.235Z,47.8262
2023-05-13T01:32:30.045Z,47.8363
2023-05-13T01:33:31.877Z,47.8489
2023-05-13T01:34:33.737Z,47.8694
2023-05-13T01:35:35.555Z,47.9070
2023-05-13T01:36:37.388Z,47.8637
2023-05-13T01:37:39.226Z,47.8584
2023-05-13T01:38:41.051Z,47.8644
2023-05-13T01:39:42.954Z,47.9203
2023-05-13T01:40:44.775Z,47.9441
2023-05-13T01:41:46.597Z,47.9232
2023-05-13T01:42:48.424Z,47.9046
2023-05-13T01:43:50.255Z,47.8806
2023-05-13T01:44:52.105Z,47.8753
2023-05-13T01:45:53.951Z,47.8710
2023-05-13T01:46:55.842Z,47.8494
2023-05-13T01:47:57.741Z,47.8485
2023-05-13T01:48:59.485Z,47.9448
2023-05-13T01:50:01.298Z,47.9747
2023-05-13T01:51:03.156Z,47.9711
2023-05-13T01:52:04.988Z,48.0000
2023-05-13T01:53:06.821Z,47.9723
2023-05-13T01:54:08.647Z,47.9979
2023-05-13T01:55:10.506Z,47.9614
2023-05-13T01:56:12.364Z,47.9511
2023-05-13T01:57:14.200Z,47.9070
2023-05-13T01:58:16.010Z,47.9645
2023-05-13T01:59:17.855Z,47.9446
2023-05-13T02:00:19.941Z,47.9578
2023-05-13T02:01:22.610Z,47.9519
2023-05-13T02:02:23.415Z,47.9566
2023-05-13T02:03:25.435Z,47.9779
2023-05-13T02:04:27.079Z,47.9939
2023-05-13T02:05:35.979Z,47.9669
2023-05-13T02:06:30.789Z,47.9497
2023-05-13T02:07:32.602Z,47.9654
2023-05-13T02:08:34.433Z,47.9509
2023-05-13T02:09:36.315Z,47.9241
2023-05-13T02:10:38.110Z,47.9187
2023-05-13T02:11:39.954Z,47.9468
2023-05-13T02:12:41.776Z,47.9804
2023-05-13T02:13:43.631Z,48.0559
2023-05-13T02:14:45.510Z,48.0227
2023-05-13T02:15:47.294Z,47.9937
2023-05-13T02:16:49.240Z,48.0054
2023-05-13T02:17:50.994Z,48.0077
2023-05-13T02:18:52.855Z,47.9929
2023-05-13T02:19:54.657Z,47.9844
2023-05-13T02:20:56.524Z,48.0205
2023-05-13T02:21:58.323Z,48.0323
2023-05-13T02:23:00.202Z,48.0218
2023-05-13T02:24:02.028Z,48.0014
2023-05-13T02:25:03.916Z,47.9894
2023-05-13T02:26:05.769Z,48.0054
2023-05-13T02:27:07.749Z,48.0448
2023-05-13T02:28:09.425Z,48.0880
2023-05-13T02:29:11.278Z,48.0672
2023-05-13T02:30:13.136Z,48.0181
2023-05-13T02:31:14.941Z,48.0139
2023-05-13T02:32:16.888Z,48.0026
2023-05-13T02:33:18.671Z,48.0058
2023-05-13T02:34:20.471Z,48.0022
2023-05-13T02:35:22.306Z,48.0201
2023-05-13T02:36:24.164Z,48.0973
2023-05-13T02:37:26.552Z,48.1088
2023-05-13T02:38:27.846Z,48.0641
2023-05-13T02:39:29.716Z,48.0422
2023-05-13T02:40:31.502Z,48.0407
2023-05-13T02:41:33.352Z,48.1025
2023-05-13T02:42:35.252Z,48.0912
2023-05-13T02:43:37.026Z,48.0282
2023-05-13T02:44:38.885Z,47.9907
2023-05-13T02:45:40.775Z,47.9586
2023-05-13T02:46:42.549Z,47.9464
2023-05-13T02:47:44.416Z,47.9536
2023-05-13T02:48:46.239Z,47.9924
2023-05-13T02:49:48.065Z,48.0043
2023-05-13T02:50:49.921Z,48.0105
2023-05-13T02:51:51.781Z,48.0365
2023-05-13T02:52:53.591Z,48.0403
2023-05-13T02:53:55.432Z,47.9891
2023-05-13T02:54:57.310Z,47.9678
2023-05-13T02:55:59.123Z,47.9279
2023-05-13T02:57:00.945Z,47.8952
2023-05-13T02:58:02.840Z,47.9380
2023-05-13T02:59:04.649Z,47.9802
2023-05-13T03:00:06.469Z,47.9520
2023-05-13T03:01:08.334Z,47.9290
2023-05-13T03:02:10.194Z,47.9583
2023-05-13T03:03:12.069Z,47.9743
2023-05-13T03:04:13.859Z,47.9477
2023-05-13T03:05:15.679Z,47.9434
2023-05-13T03:06:17.502Z,47.9362
2023-05-13T03:07:19.365Z,47.9525
2023-05-13T03:08:21.201Z,47.9675
2023-05-13T03:09:23.022Z,47.9321
2023-05-13T03:10:24.915Z,47.9583
2023-05-13T03:11:26.722Z,47.9942
2023-05-13T03:12:28.539Z,47.9814
2023-05-13T03:13:30.390Z,48.0058
2023-05-13T03:14:32.238Z,48.0241
2023-05-13T03:15:34.062Z,47.9850
2023-05-13T03:16:36.026Z,47.9522
2023-05-13T03:17:37.783Z,47.9382
2023-05-13T03:18:39.636Z,47.9466
2023-05-13T03:19:41.426Z,47.9682
2023-05-13T03:20:43.283Z,47.9532
2023-05-13T03:21:45.102Z,47.9702
2023-05-13T03:22:46.982Z,47.9841
2023-05-13T03:23:48.853Z,48.0560
2023-05-13T03:24:50.634Z,48.0903
2023-05-13T03:25:52.469Z,48.0512
2023-05-13T03:26:54.326Z,48.0453
2023-05-13T03:27:56.170Z,47.9887
2023-05-13T03:28:58.015Z,47.9613
2023-05-13T03:29:59.826Z,47.9282
2023-05-13T03:31:01.723Z,47.9446
2023-05-13T03:32:03.505Z,47.9095
2023-05-13T03:33:05.373Z,47.8966
2023-05-13T03:34:07.197Z,47.9554
2023-05-13T03:35:09.046Z,48.0275
2023-05-13T03:36:10.868Z,47.9741
2023-05-13T03:37:12.724Z,47.9558
2023-05-13T03:38:14.554Z,47.9574
2023-05-13T03:39:16.388Z,47.9403
2023-05-13T03:40:18.250Z,47.9438
2023-05-13T03:41:20.086Z,47.9313
2023-05-13T03:42:21.912Z,47.9513
2023-05-13T03:43:23.771Z,48.0038
2023-05-13T03:44:25.611Z,47.9965
2023-05-13T03:45:27.429Z,48.0092
2023-05-13T03:46:29.346Z,48.0608
2023-05-13T03:47:31.147Z,48.0552
2023-05-13T03:48:32.967Z,48.0434
2023-05-13T03:49:34.812Z,48.0402
2023-05-13T03:50:36.642Z,48.0682
2023-05-13T03:51:38.466Z,48.1024
2023-05-13T03:52:40.307Z,48.1182
2023-05-13T03:53:42.182Z,48.0992
2023-05-13T03:54:43.999Z,48.0277
2023-05-13T03:55:45.812Z,48.0405
2023-05-13T03:56:47.674Z,47.9945
2023-05-13T03:57:49.494Z,47.9828
2023-05-13T03:58:51.330Z,48.0126
2023-05-13T03:59:53.210Z,48.0057
2023-05-13T04:00:55.028Z,48.0155
2023-05-13T04:01:56.877Z,48.0161
2023-05-13T04:02:58.804Z,48.0108
2023-05-13T04:04:00.533Z,48.0294
2023-05-13T04:05:02.372Z,48.0175
2023-05-13T04:06:04.218Z,48.0130
2023-05-13T04:07:06.056Z,48.0060
2023-05-13T04:08:07.897Z,47.9965
2023-05-13T04:09:09.722Z,47.9617
2023-05-13T04:10:14.553Z,47.9460
2023-05-13T04:11:13.639Z,48.0003
2023-05-13T04:12:15.270Z,48.0324
2023-05-13T04:13:17.085Z,47.9969
2023-05-13T04:14:18.913Z,48.0354
2023-05-13T04:15:20.748Z,48.0267
2023-05-13T04:16:22.643Z,48.0823
2023-05-13T04:17:24.497Z,48.1214
2023-05-13T04:18:26.370Z,48.1143
2023-05-13T04:19:28.130Z,48.0306
2023-05-13T04:20:29.955Z,47.9860
2023-05-13T04:21:31.799Z,47.9739
2023-05-13T04:22:33.649Z,47.9222
2023-05-13T04:23:35.500Z,47.9486
2023-05-13T04:24:37.400Z,48.0056
2023-05-13T04:25:39.191Z,48.0418
2023-05-13T04:26:41.017Z,48.0610
2023-05-13T04:27:42.862Z,48.1035
2023-05-13T04:28:44.723Z,48.0662
2023-05-13T04:29:46.580Z,48.0333
2023-05-13T04:30:48.435Z,47.9870
2023-05-13T04:31:50.312Z,48.0162
2023-05-13T04:32:52.116Z,48.0450
2023-05-13T04:33:53.924Z,48.0654
2023-05-13T04:34:55.789Z,48.0806
2023-05-13T04:35:57.635Z,48.0573
2023-05-13T04:36:59.472Z,48.0816
2023-05-13T04:38:01.292Z,48.0409
2023-05-13T04:39:03.184Z,48.0728
2023-05-13T04:40:04.999Z,48.1074
2023-05-13T04:41:06.840Z,48.0692
2023-05-13T04:42:08.684Z,48.0482
2023-05-13T04:43:10.540Z,48.0363
2023-05-13T04:44:12.374Z,47.9966
2023-05-13T04:45:14.205Z,47.9864
2023-05-13T04:46:16.099Z,47.9888
2023-05-13T04:47:17.884Z,48.0279
2023-05-13T04:48:19.704Z,48.0348
2023-05-13T04:49:21.575Z,47.9937
2023-05-13T04:50:23.450Z,48.0091
2023-05-13T04:51:25.240Z,47.9949
2023-05-13T04:52:27.080Z,48.0098
2023-05-13T04:53:28.928Z,48.0349
2023-05-13T04:54:30.754Z,48.0428
2023-05-13T04:55:32.638Z,48.0557
2023-05-13T04:56:34.431Z,48.0468
2023-05-13T04:57:36.295Z,48.0565
2023-05-13T04:58:38.132Z,48.0370
2023-05-13T04:59:39.968Z,48.1077
2023-05-13T05:00:41.798Z,48.0853
2023-05-13T05:01:43.747Z,48.0750
2023-05-13T05:02:45.529Z,48.0788
2023-05-13T05:03:47.404Z,48.0700
2023-05-13T05:04:49.342Z,48.0630
2023-05-13T05:05:51.025Z,48.0591
2023-05-13T05:06:52.864Z,48.0795
2023-05-13T05:07:54.736Z,48.0894
2023-05-13T05:08:56.560Z,48.0633
2023-05-13T05:09:58.388Z,48.0868
2023-05-13T05:11:00.232Z,48.1299
2023-05-13T05:12:02.069Z,48.1478
2023-05-13T05:13:03.929Z,48.1250
2023-05-13T05:14:05.788Z,48.0793
2023-05-13T05:15:07.618Z,48.0944
2023-05-13T05:16:09.440Z,48.1177
2023-05-13T05:17:11.300Z,48.1286
2023-05-13T05:18:13.161Z,48.1088
2023-05-13T05:19:15.067Z,48.1272
2023-05-13T05:20:16.850Z,48.1659
2023-05-13T05:21:18.644Z,48.1479
2023-05-13T05:22:20.479Z,48.1235
2023-05-13T05:23:22.320Z,48.1671
2023-05-13T05:24:24.182Z,48.1275
2023-05-13T05:25:26.037Z,48.0937
2023-05-13T05:26:27.887Z,48.0918
2023-05-13T05:27:29.698Z,48.0844
2023-05-13T05:28:31.555Z,48.0763
2023-05-13T05:29:33.418Z,48.0902
2023-05-13T05:30:35.231Z,48.0904
2023-05-13T05:31:37.123Z,48.1573
2023-05-13T05:32:38.946Z,48.1194
2023-05-13T05:33:40.764Z,48.0706
2023-05-13T05:34:42.608Z,48.0364
2023-05-13T05:35:44.443Z,48.0338
2023-05-13T05:36:46.298Z,48.0627
2023-05-13T05:37:48.138Z,48.0361
2023-05-13T05:38:50.006Z,48.0284
2023-05-13T05:39:51.820Z,48.0593
2023-05-13T05:40:53.702Z,48.0282
2023-05-13T05:41:55.506Z,48.0311
2023-05-13T05:42:57.341Z,48.0592
2023-05-13T05:43:59.187Z,48.0828
2023-05-13T05:45:01.059Z,48.1096
2023-05-13T05:46:02.915Z,48.1019
2023-05-13T05:47:04.707Z,48.0808
2023-05-13T05:48:06.601Z,48.0725
2023-05-13T05:49:08.369Z,48.0822
2023-05-13T05:50:10.221Z,48.0855
2023-05-13T05:51:12.078Z,48.0558
2023-05-13T05:52:13.880Z,48.0254
2023-05-13T05:53:15.739Z,48.0228
2023-05-13T05:54:17.558Z,47.9993
2023-05-13T05:55:19.408Z,47.9861
2023-05-13T05:56:21.256Z,47.9756
2023-05-13T05:57:23.109Z,47.9626
2023-05-13T05:58:24.910Z,47.9858
2023-05-13T05:59:26.765Z,48.0524
2023-05-13T06:00:28.653Z,48.0146
2023-05-13T06:01:30.440Z,47.9563
2023-05-13T06:02:32.318Z,47.9480
2023-05-13T06:03:34.250Z,47.9297
2023-05-13T06:04:35.990Z,47.9139
2023-05-13T06:05:37.799Z,47.8816
2023-05-13T06:06:39.636Z,47.8899
2023-05-13T06:07:41.491Z,47.8867
2023-05-13T06:08:43.298Z,47.8633
2023-05-13T06:09:45.177Z,47.8844
2023-05-13T06:10:46.984Z,47.9152
2023-05-13T06:11:48.819Z,47.9036
2023-05-13T06:12:50.669Z,47.8781
2023-05-13T06:13:52.510Z,47.8743
2023-05-13T06:14:54.385Z,47.8530
2023-05-13T06:15:56.258Z,47.8253
2023-05-13T06:16:58.014Z,47.7977
2023-05-13T06:17:59.926Z,47.7756
2023-05-13T06:19:01.855Z,47.7513
2023-05-13T06:20:03.535Z,47.7629
2023-05-13T06:21:05.411Z,47.7869
2023-05-13T06:22:07.231Z,47.7939
2023-05-13T06:23:09.056Z,47.7547
2023-05-13T06:24:10.908Z,47.7556
2023-05-13T06:25:12.748Z,47.8161
2023-05-13T06:26:14.572Z,47.8952
2023-05-13T06:27:16.447Z,47.9032
2023-05-13T06:28:18.319Z,47.9156
2023-05-13T06:29:20.154Z,47.8639
2023-05-13T06:30:22.299Z,47.7737
2023-05-13T06:31:23.910Z,47.7678
2023-05-13T06:32:25.722Z,47.8074
2023-05-13T06:33:27.583Z,47.8654
2023-05-13T06:34:29.338Z,47.8757
2023-05-13T06:35:31.186Z,47.8835
2023-05-13T06:36:33.028Z,47.8433
2023-05-13T06:37:34.848Z,47.8551
2023-05-13T06:38:36.677Z,47.8321
2023-05-13T06:39:38.558Z,47.8473
2023-05-13T06:40:40.357Z,47.8763
2023-05-13T06:41:42.191Z,47.8798
2023-05-13T06:42:44.048Z,47.9410
2023-05-13T06:43:45.877Z,47.9668
2023-05-13T06:44:47.710Z,47.9784
2023-05-13T06:45:49.586Z,47.9383
2023-05-13T06:46:51.406Z,47.9317
2023-05-13T06:47:53.232Z,47.9293
2023-05-13T06:48:55.061Z,47.9191
2023-05-13T06:49:56.911Z,47.9354
2023-05-13T06:50:58.713Z,47.9653
2023-05-13T06:52:00.610Z,47.9563
2023-05-13T06:53:02.408Z,47.8821
2023-05-13T06:54:04.225Z,47.8848
2023-05-13T06:55:06.054Z,47.8761
2023-05-13T06:56:07.915Z,47.8820
2023-05-13T06:57:09.751Z,47.8687
2023-05-13T06:58:11.594Z,47.9374
2023-05-13T06:59:13.405Z,47.9748
2023-05-13T07:00:15.237Z,47.9567
2023-05-13T07:01:17.104Z,47.9222
2023-05-13T07:02:18.921Z,47.8863
2023-05-13T07:03:20.793Z,47.8801
2023-05-13T07:04:22.609Z,47.9078
2023-05-13T07:05:24.434Z,47.8838
2023-05-13T07:06:26.272Z,47.8396
2023-05-13T07:07:28.110Z,47.8294
2023-05-13T07:08:29.934Z,47.8118
2023-05-13T07:09:31.786Z,47.8411
2023-05-13T07:10:33.667Z,47.8899
2023-05-13T07:11:35.458Z,47.8943
2023-05-13T07:12:37.307Z,47.9020
2023-05-13T07:13:39.278Z,47.9755
2023-05-13T07:14:40.973Z,47.9700
2023-05-13T07:15:42.820Z,47.9502
2023-05-13T07:16:44.706Z,47.9093
2023-05-13T07:17:46.614Z,47.9000
2023-05-13T07:18:48.352Z,47.9138
2023-05-13T07:19:50.176Z,47.8276
2023-05-13T07:20:52.001Z,47.7672
2023-05-13T07:21:53.894Z,47.7692
2023-05-13T07:22:55.696Z,47.7800
2023-05-13T07:23:57.520Z,47.7051
2023-05-13T07:24:59.353Z,47.6795
2023-05-13T07:26:01.206Z,47.6588
2023-05-13T07:27:03.041Z,47.6025
2023-05-13T07:28:04.893Z,47.5393
2023-05-13T07:29:06.718Z,47.5058
2023-05-13T07:30:08.550Z,47.4936
2023-05-13T07:31:10.436Z,47.4741
2023-05-13T07:32:12.237Z,47.4440
2023-05-13T07:33:14.112Z,47.4521
2023-05-13T07:34:15.923Z,47.4071
2023-05-13T07:35:17.732Z,47.3539
2023-05-13T07:36:19.592Z,47.3513
2023-05-13T07:37:21.419Z,47.3366
2023-05-13T07:38:23.268Z,47.3186
2023-05-13T07:39:25.100Z,47.2799
2023-05-13T07:40:26.983Z,47.2645
2023-05-13T07:41:28.765Z,47.2553
2023-05-13T07:42:30.619Z,47.2432
2023-05-13T07:43:32.457Z,47.2819
2023-05-13T07:44:34.284Z,47.2771
2023-05-13T07:45:36.131Z,47.2636
2023-05-13T07:46:38.043Z,47.2115
2023-05-13T07:47:40.675Z,47.1632
2023-05-13T07:48:41.645Z,47.1452
2023-05-13T07:49:43.486Z,47.1101
2023-05-13T07:50:45.314Z,47.1190
2023-05-13T07:51:47.183Z,47.1424
2023-05-13T07:52:49.021Z,47.1468
2023-05-13T07:53:50.821Z,47.1213
2023-05-13T07:54:52.671Z,47.1034
2023-05-13T07:55:54.517Z,47.0662
2023-05-13T07:56:56.329Z,47.0418
2023-05-13T07:57:58.185Z,47.0237
2023-05-13T07:59:00.053Z,47.0093
2023-05-13T08:00:01.847Z,47.0612
2023-05-13T08:01:03.680Z,47.0371
2023-05-13T08:02:05.537Z,47.0101
2023-05-13T08:03:07.473Z,47.0417
2023-05-13T08:04:09.293Z,46.9703
2023-05-13T08:05:11.123Z,46.9489
2023-05-13T08:06:12.877Z,46.9968
2023-05-13T08:07:14.722Z,47.0166
2023-05-13T08:08:16.576Z,47.0103
2023-05-13T08:09:18.412Z,46.9258
2023-05-13T08:10:20.229Z,46.8763
2023-05-13T08:11:22.116Z,46.8673
2023-05-13T08:12:23.928Z,46.8462
2023-05-13T08:13:25.754Z,46.8316
2023-05-13T08:14:27.572Z,46.8207
2023-05-13T08:15:29.433Z,46.8119
2023-05-13T08:16:31.320Z,46.8426
2023-05-13T08:17:33.122Z,46.8876
2023-05-13T08:18:34.991Z,46.8955
2023-05-13T08:19:36.748Z,46.8854
2023-05-13T08:20:38.582Z,46.8755
2023-05-13T08:21:40.427Z,46.8719
2023-05-13T08:22:42.248Z,46.8154
2023-05-13T08:23:45.824Z,46.7876
2023-05-13T08:24:45.925Z,46.7013
2023-05-13T08:25:47.762Z,46.6452
2023-05-13T08:26:49.588Z,46.6134
2023-05-13T08:27:51.425Z,46.6197
2023-05-13T08:28:54.927Z,46.6026
2023-05-13T08:29:55.113Z,46.5583
2023-05-13T08:30:56.926Z,46.4555
2023-05-13T08:31:58.847Z,46.4334
2023-05-13T08:33:00.596Z,46.4528
2023-05-13T08:34:02.433Z,46.4517
2023-05-13T08:35:04.276Z,46.4775
2023-05-13T08:36:06.102Z,46.4944
2023-05-13T08:37:07.918Z,46.4838
2023-05-13T08:38:09.766Z,46.5107
2023-05-13T08:39:11.590Z,46.4890
2023-05-13T08:40:13.460Z,46.4807
2023-05-13T08:41:15.285Z,46.4851
2023-05-13T08:42:17.130Z,46.4605
2023-05-13T08:43:18.933Z,46.3962
2023-05-13T08:44:20.784Z,46.4377
2023-05-13T08:45:22.885Z,46.4496
2023-05-13T08:46:24.456Z,46.4737
2023-05-13T08:47:26.342Z,46.4236
2023-05-13T08:48:28.163Z,46.4041
2023-05-13T08:49:29.965Z,46.4007
2023-05-13T08:50:31.783Z,46.3533
2023-05-13T08:51:33.640Z,46.3595
2023-05-13T08:52:35.476Z,46.3752
2023-05-13T08:53:37.311Z,46.3523
2023-05-13T08:54:39.184Z,46.3713
2023-05-13T08:55:40.998Z,46.3286
2023-05-13T08:56:42.819Z,46.2938
2023-05-13T08:57:44.640Z,46.2752
2023-05-13T08:58:46.501Z,46.2959
2023-05-13T08:59:48.331Z,46.3399
2023-05-13T09:00:50.185Z,46.3292
2023-05-13T09:01:52.090Z,46.2864
2023-05-13T09:02:53.859Z,46.2761
2023-05-13T09:03:55.719Z,46.2941
2023-05-13T09:04:57.622Z,46.2793
2023-05-13T09:05:59.333Z,46.2833
2023-05-13T09:07:01.210Z,46.3103
2023-05-13T09:08:03.018Z,46.2662
2023-05-13T09:09:04.842Z,46.3088
2023-05-13T09:10:06.705Z,46.3158
2023-05-13T09:11:08.536Z,46.2799
2023-05-13T09:12:10.352Z,46.2414
2023-05-13T09:13:12.226Z,46.2629
2023-05-13T09:14:14.028Z,46.2840
2023-05-13T09:15:15.878Z,46.2987
2023-05-13T09:16:17.779Z,46.2319
2023-05-13T09:17:19.552Z,46.2165
2023-05-13T09:18:21.460Z,46.1730
2023-05-13T09:19:23.320Z,46.1788
2023-05-13T09:20:25.044Z,46.1837
2023-05-13T09:21:26.879Z,46.1878
2023-05-13T09:22:28.729Z,46.1652
2023-05-13T09:23:30.562Z,46.1479
2023-05-13T09:24:32.381Z,46.1524
2023-05-13T09:25:34.262Z,46.1075
2023-05-13T09:26:36.072Z,46.0766
2023-05-13T09:27:37.902Z,46.0968
2023-05-13T09:28:39.721Z,46.0308
2023-05-13T09:29:41.579Z,46.0065
2023-05-13T09:30:45.618Z,45.9697
2023-05-13T09:31:45.360Z,45.9748
2023-05-13T09:32:47.109Z,45.9461
2023-05-13T09:33:48.927Z,45.9307
2023-05-13T09:34:50.756Z,45.8881
2023-05-13T09:35:52.832Z,45.8605
2023-05-13T09:36:54.433Z,45.8836
2023-05-13T09:37:56.304Z,45.8719
2023-05-13T09:38:58.085Z,45.8741
2023-05-13T09:39:59.925Z,45.8470
2023-05-13T09:41:01.777Z,45.8322
2023-05-13T09:42:05.114Z,45.8037
2023-05-13T09:43:05.443Z,45.8335
2023-05-13T09:44:07.347Z,45.9273
2023-05-13T09:45:09.128Z,45.9690
2023-05-13T09:46:10.970Z,45.9341
2023-05-13T09:47:12.957Z,46.0040
2023-05-13T09:48:14.644Z,46.0418
2023-05-13T09:49:16.463Z,46.0784
2023-05-13T09:50:18.336Z,46.0968
2023-05-13T09:51:20.132Z,46.1429
2023-05-13T09:52:21.992Z,46.1842
2023-05-13T09:53:23.827Z,46.2422
2023-05-13T09:54:25.643Z,46.1889
2023-05-13T09:55:27.500Z,46.1737
2023-05-13T09:56:29.357Z,46.2163
2023-05-13T09:57:31.152Z,46.3176
2023-05-13T09:58:32.996Z,46.4111
2023-05-13T09:59:34.839Z,46.4408
2023-05-13T10:00:38.978Z,46.5411
2023-05-13T10:01:38.550Z,46.6276
2023-05-13T10:02:40.383Z,46.6609
2023-05-13T10:03:42.202Z,46.6505
2023-05-13T10:04:44.025Z,46.6954
2023-05-13T10:05:45.918Z,46.7178
2023-05-13T10:06:47.682Z,46.7617
2023-05-13T10:07:49.530Z,46.8101
2023-05-13T10:08:51.394Z,46.7887
2023-05-13T10:09:53.190Z,46.8528
2023-05-13T10:10:55.047Z,46.9053
2023-05-13T10:11:56.865Z,46.9646
2023-05-13T10:12:58.719Z,46.9577
2023-05-13T10:14:00.563Z,46.9499
2023-05-13T10:15:02.436Z,46.9296
2023-05-13T10:16:04.254Z,46.8923
2023-05-13T10:17:06.145Z,46.8585
2023-05-13T10:18:07.955Z,46.8914
2023-05-13T10:19:09.813Z,46.9143
2023-05-13T10:20:11.604Z,46.8993
2023-05-13T10:21:13.456Z,46.9648
2023-05-13T10:22:15.263Z,47.0018
2023-05-13T10:23:17.101Z,46.9842
2023-05-13T10:24:18.954Z,46.9987
2023-05-13T10:25:20.785Z,47.0271
2023-05-13T10:26:22.636Z,47.0423
2023-05-13T10:27:24.506Z,47.0634
2023-05-13T10:28:26.305Z,47.0623
2023-05-13T10:29:28.143Z,47.0745
2023-05-13T10:30:29.967Z,47.0883
2023-05-13T10:31:31.854Z,47.1182
2023-05-13T10:32:33.746Z,47.1823
2023-05-13T10:33:35.588Z,47.2200
2023-05-13T10:34:37.389Z,47.3015
2023-05-13T10:35:41.957Z,47.3217
2023-05-13T10:36:41.054Z,47.3751
2023-05-13T10:37:42.892Z,47.4251
2023-05-13T10:38:44.743Z,47.4765
2023-05-13T10:39:46.595Z,47.5166
2023-05-13T10:40:48.394Z,47.5364
2023-05-13T10:41:50.246Z,47.5703
2023-05-13T10:42:52.075Z,47.5998
2023-05-13T10:43:53.896Z,47.6544
2023-05-13T10:44:55.752Z,47.7459
2023-05-13T10:45:57.627Z,47.7708
2023-05-13T10:46:59.408Z,47.7531
2023-05-13T10:48:01.356Z,47.7491
2023-05-13T10:49:03.103Z,47.8656
2023-05-13T10:50:04.928Z,47.9135
2023-05-13T10:51:06.781Z,47.8863
2023-05-13T10:52:08.651Z,47.9853
2023-05-13T10:53:10.444Z,47.9696
2023-05-13T10:54:12.276Z,47.9613
2023-05-13T10:55:14.113Z,47.9287
2023-05-13T10:56:15.969Z,47.8701
2023-05-13T10:57:18.493Z,47.8375
2023-05-13T10:58:19.621Z,47.8692
2023-05-13T10:59:21.463Z,47.9039
2023-05-13T11:00:23.529Z,47.7935
2023-05-13T11:01:25.166Z,47.7290
2023-05-13T11:02:27.061Z,47.6993
2023-05-13T11:03:29.344Z,47.7618
2023-05-13T11:04:30.653Z,47.7460
2023-05-13T11:05:32.486Z,47.7601
2023-05-13T11:06:34.343Z,47.7012
2023-05-13T11:07:36.169Z,47.6897
2023-05-13T11:08:37.991Z,47.6666
2023-05-13T11:09:39.878Z,47.6539
2023-05-13T11:10:41.684Z,47.6835
2023-05-13T11:11:43.509Z,47.5594
2023-05-13T11:12:45.349Z,47.4704
2023-05-13T11:13:47.199Z,47.3977
2023-05-13T11:14:49.024Z,47.3039
2023-05-13T11:15:50.934Z,47.2436
2023-05-13T11:16:52.756Z,47.2166
2023-05-13T11:17:54.595Z,47.1872
2023-05-13T11:18:56.430Z,47.2137
2023-05-13T11:19:58.233Z,47.1918
2023-05-13T11:21:00.103Z,47.1519
2023-05-13T11:22:01.921Z,47.0975
2023-05-13T11:23:03.744Z,47.0542
2023-05-13T11:24:05.714Z,47.0917
2023-05-13T11:25:07.410Z,47.0708
2023-05-13T11:26:11.928Z,47.0688
2023-05-13T11:27:11.101Z,47.0428
2023-05-13T11:28:12.992Z,47.0058
2023-05-13T11:29:14.763Z,47.0351
2023-05-13T11:30:16.615Z,46.9997
2023-05-13T11:31:18.540Z,46.9963
2023-05-13T11:32:20.278Z,47.0359
2023-05-13T11:33:22.134Z,47.0406
2023-05-13T11:34:23.998Z,47.0629
2023-05-13T11:35:25.811Z,46.9987
2023-05-13T11:36:27.631Z,46.9048
2023-05-13T11:37:29.474Z,46.8610
2023-05-13T11:38:31.322Z,46.8270
2023-05-13T11:39:33.318Z,46.7815
2023-05-13T11:40:35.012Z,46.7438
2023-05-13T11:41:36.863Z,46.6840
2023-05-13T11:42:38.669Z,46.6806
2023-05-13T11:43:40.545Z,46.6556
2023-05-13T11:44:42.356Z,46.6687
2023-05-13T11:45:44.223Z,46.6277
2023-05-13T11:46:46.064Z,46.5826
2023-05-13T11:47:47.928Z,46.5090
2023-05-13T11:48:49.713Z,46.4063
2023-05-13T11:49:51.543Z,46.3222
2023-05-13T11:50:53.393Z,46.3279
2023-05-13T11:51:55.247Z,46.2638
2023-05-13T11:52:57.083Z,46.2060
2023-05-13T11:53:58.899Z,46.1378
2023-05-13T11:55:00.733Z,46.1200
2023-05-13T11:56:02.585Z,46.1173
2023-05-13T11:57:04.412Z,46.0813
2023-05-13T11:58:06.260Z,46.0312
2023-05-13T11:59:08.107Z,46.0348
2023-05-13T12:00:09.938Z,46.0164
2023-05-13T12:01:11.759Z,45.9990
2023-05-13T12:02:13.638Z,46.0193
2023-05-13T12:03:15.465Z,46.0360
2023-05-13T12:04:17.286Z,46.1506
2023-05-13T12:05:19.184Z,46.1933
2023-05-13T12:06:20.944Z,46.2135
2023-05-13T12:07:22.794Z,46.2576
2023-05-13T12:08:24.632Z,46.2438
2023-05-13T12:09:26.478Z,46.1950
2023-05-13T12:10:28.308Z,46.1173
2023-05-13T12:11:30.175Z,46.0976
2023-05-13T12:12:31.981Z,46.0699
2023-05-13T12:13:33.821Z,46.0425
2023-05-13T12:14:35.656Z,46.0177
2023-05-13T12:15:37.516Z,45.9638
2023-05-13T12:16:39.325Z,45.9155
2023-05-13T12:17:41.227Z,45.8306
2023-05-13T12:18:42.992Z,45.8329
2023-05-13T12:19:44.837Z,45.8618
2023-05-13T12:20:46.691Z,45.8662
2023-05-13T12:21:48.504Z,45.8393
2023-05-13T12:22:50.340Z,45.8367
2023-05-13T12:23:52.205Z,45.8205
2023-05-13T12:24:54.007Z,45.8116
2023-05-13T12:25:55.848Z,45.7797
2023-05-13T12:26:57.711Z,45.8140
2023-05-13T12:27:59.535Z,45.8805